Kahuta Weather



Kahuta's Current Weather

Temprature 37.14o clear sky

clear sky

Rain: 0 %

Min Temprature37.14o
Max Temprature37.14o
Humidity29
Wind Speed1.62 m/h
Sun Rise05:12:52
Sun Set19:12:43
Current Time: 24-Jul-2021 16:15:31
Lat/Lon: 33.5913, 73.3868




Kahuta's Geo Location



Kahuta's Weather Forecast

Time Overall Temp Min Temp Max Temp Humidity Wind Speed Rain
24-Jul-2021 (Sat)
17:00:00 clear sky 37.140 37.140 37.740 29 1.34 m/h 0 %
20:00:00 clear sky 35.940 33.550 35.940 33 1.73 m/h 0 %
23:00:00 clear sky 33.400 31.530 33.400 40 2.49 m/h 0 %
25-Jul-2021 (Sun)
02:00:00 few clouds 29.920 29.920 29.920 51 2.89 m/h 0 %
05:00:00 scattered clouds 29.120 29.120 29.120 53 2.65 m/h 0 %
08:00:00 scattered clouds 33.310 33.310 33.310 45 2.15 m/h 0 %
11:00:00 scattered clouds 36.610 36.610 36.610 37 2.62 m/h 0 %
14:00:00 broken clouds 38.510 38.510 38.510 31 1.77 m/h 0 %
17:00:00 broken clouds 38.850 38.850 38.850 29 1.25 m/h 0 %
20:00:00 broken clouds 34.760 34.760 34.760 38 2.2 m/h 0 %
23:00:00 scattered clouds 31.680 31.680 31.680 55 3.85 m/h 0 %
26-Jul-2021 (Mon)
02:00:00 broken clouds 30.510 30.510 30.510 60 2.59 m/h 0 %
05:00:00 broken clouds 29.670 29.670 29.670 63 2.05 m/h 0 %
08:00:00 overcast clouds 32.380 32.380 32.380 58 3.41 m/h 0 %
11:00:00 light rain 35.340 35.340 35.340 50 3.87 m/h 17 %
14:00:00 scattered clouds 37.490 37.490 37.490 41 3.02 m/h 0 %
17:00:00 broken clouds 33.550 33.550 33.550 55 4 m/h 0 %
20:00:00 broken clouds 32.710 32.710 32.710 56 2.5 m/h 0 %
23:00:00 broken clouds 30.060 30.060 30.060 70 4.68 m/h 0 %
27-Jul-2021 (Tue)
02:00:00 light rain 27.780 27.780 27.780 82 2.53 m/h 107 %
05:00:00 light rain 27.640 27.640 27.640 81 3.62 m/h 256 %
08:00:00 light rain 28.510 28.510 28.510 79 2.76 m/h 62 %
11:00:00 light rain 31.140 31.140 31.140 66 3.89 m/h 27 %
14:00:00 light rain 33.240 33.240 33.240 59 4.23 m/h 147 %
17:00:00 light rain 31.540 31.540 31.540 65 4.12 m/h 227 %
20:00:00 moderate rain 28.440 28.440 28.440 79 3.78 m/h 733 %
23:00:00 moderate rain 26.460 26.460 26.460 88 2.91 m/h 470 %
28-Jul-2021 (Wed)
02:00:00 moderate rain 25.730 25.730 25.730 89 3.26 m/h 747 %
05:00:00 moderate rain 25.090 25.090 25.090 91 1.67 m/h 689 %
08:00:00 light rain 24.470 24.470 24.470 93 2.01 m/h 285 %
11:00:00 moderate rain 24.110 24.110 24.110 96 1.54 m/h 856 %
14:00:00 light rain 24.730 24.730 24.730 94 2.72 m/h 247 %
17:00:00 moderate rain 24.550 24.550 24.550 91 2.82 m/h 348 %
20:00:00 light rain 24.800 24.800 24.800 89 2.18 m/h 12 %
23:00:00 broken clouds 24.600 24.600 24.600 87 1.31 m/h 0 %
29-Jul-2021 (Thu)
02:00:00 light rain 23.650 23.650 23.650 90 0.63 m/h 72 %
05:00:00 light rain 23.150 23.150 23.150 94 0.52 m/h 72 %
08:00:00 light rain 24.930 24.930 24.930 86 0.88 m/h 105 %
11:00:00 light rain 26.750 26.750 26.750 77 0.36 m/h 51 %
14:00:00 scattered clouds 30.930 30.930 30.930 60 0.97 m/h 0 %

Famous Cities (60)